AirNav   Duncan Aviation - Near you to keep you flying
 
 939 users online  

CD56 Grand Valley Heliport
Parachute, Colorado, USA

GOING TO PARACHUTE?


FAA INFORMATION EFFECTIVE 08 SEPTEMBER 2022

Location

FAA Identifier: CD56
Lat/Long: 39-24-59.9210N 108-06-02.2770W
39-24.998683N 108-06.037950W
39.4166447,-108.1006325
(estimated)
Elevation: 6095 ft. / 1858 m (estimated)
Variation: 13E (1985)
From city: 2 miles W of PARACHUTE, CO
Time zone: UTC -6 (UTC -7 during Standard Time)
Zip code: 81635

Heliport Operations

Heliport use: Private use. Permission required prior to landing
Activation date: 03/1988
Control tower: no
ARTCC: DENVER CENTER
FSS: DENVER FLIGHT SERVICE STATION
Attendance: UNATNDD
Segmented circle: no

Heliport Communications

WX ASOS at RIL (18 nm E): 135.275 (970-625-2206)

Nearby radio navigation aids

VOR radial/distance  VOR name  Freq  Var
RILr239/18.9RIFLE VOR/DME110.6010E
JNCr041/38.6GRAND JUNCTION VOR/DME112.4015E
EKRr177/39.9MEEKER VOR/DME115.2015E

Heliport Services

Runway Information

Helipad H1

Dimensions: 100 x 100 ft. / 30 x 30 m
Surface: gravel/treated
Traffic pattern: leftleft

Heliport Ownership and Management from official FAA records

Ownership: Privately-owned
Owner: CENTURYLINK
9666 METRO AIRPORT AVE
BROOMFIELD, CO 80012
Phone (303) 643-4972
Manager: DARREN ALMSKOG
9666 METRO AIRPORT AVE
BROOMFIELD, CO 80012
Phone (303) 304-9960
DARREN ALMSKOG 303-304-9960

Additional Remarks

FOR CD CTC DENVER ARTCC AT 303-651-4257.

Instrument Procedures

There are no published instrument procedures at CD56.

Some nearby airports with instrument procedures:

KRIL - Rifle Garfield County Airport (18 nm E)
KGJT - Grand Junction Regional Airport (27 nm SW)
KAJZ - Blake Field Airport (38 nm S)
KEEO - Meeker Coulter Field Airport (39 nm N)
4V0 - Rangely Airport (51 nm NW)
 
Loc | Ops | Rwys | IFR | FBO | Links
Com | Nav | Svcs | Stats | Notes

AirBoss

 
Area around CD56 (Grand Valley Heliport)
 
Road maps at: MapQuest Bing Google
 
Aerial photo
No photo
 
Sectional chart

 
Airport distance calculator
Flying to Grand Valley Heliport? Find the distance to fly.

From to CD56

Sunrise and sunset
Times for 24-Sep-2022
 Local
(UTC-6)
 Zulu
(UTC)
Morning civil twilight06:3612:36
Sunrise07:0313:03
Sunset19:0601:06
Evening civil twilight19:3301:33

Current date and time
Zulu (UTC)  24-Sep-2022 23:11:36
Local (UTC-6)  24-Sep-2022 17:11:36
 
METAR
KRIL 
18nm E 
242253Z AUTO 28007KT 10SM CLR 26/M01 A3025 RMK AO2 SLP192 T02611006
KGJT 
26nm SW 
242253Z 29006KT 10SM CLR 26/M05 A3022 RMK AO2 SLP180 T02611050
K5SM 
33nm E 
242255Z AUTO 28005KT 10SM CLR 12/M05 A3062 RMK AO2
TAF
KRIL 
18nm E 
241737Z 2418/2518 VRB03KT P6SM SKC FM242000 28006KT P6SM SKC FM250200 VRB04KT P6SM SKC
NOTAMs
Click for the latest NOTAMs
NOTAMs are issued by the DoD/FAA and will open in a separate window not controlled by AirNav.

 

 
 

Would you like to see your business listed on this page?

 If your business provides an interesting product or service to pilots, flight crews, aircraft, or users of the Grand Valley Heliport, you should consider listing it here.  To start the listing process, click on the button below
 
Add a business
 

Other Pages about Grand Valley Heliport

Update a link
 
Copyright © AirNav, LLC. All rights reserved. Privacy Policy  Contact